Indianola, WA (98342)

9:27 AM PDT on July 27, 2016 (GMT -0700)
Miller Bay Estates | | Change Station

Elev 250 ft 47.76 °N, 122.55 °W | Updated 19 seconds ago

Clear
Clear
61.6 °F
Feels Like 61.6 °F
N
0.0
Wind Variable Wind from SE
Gusts 0.0 mph

Today
High -- | Low -- °F
--% Chance of Precip.
Yesterday
High -- | Low -- °F
Precip. -- in
Pressure 30.16 in
Visibility 10.0 miles
Clouds Clear
Dew Point 60 °F
Humidity 93%
Rainfall 0.00 in
Snow Depth Not available.
5:41 AM 8:50 PM
Last Quarter, 42% visible
METAR KPAE 271553Z VRB05KT 10SM CLR 17/13 A3016 RMK AO2 SLP211 T01720128
Pressure 30.16 in
Visibility 10.0 miles
Clouds Clear
Dew Point 60 °F
Humidity 93%
Rainfall 0.00 in
Snow Depth Not available.
5:41 AM 8:50 PM
Last Quarter, 42% visible
METAR KPAE 271553Z VRB05KT 10SM CLR 17/13 A3016 RMK AO2 SLP211 T01720128

10-Day Weather Forecast

Almanac

Astronomy

Jul. 27, 2016 Rise Set
Actual Time
Civil Twilight
Nautical Twilight
Astronomical Twilight
Moon
Length of Visible Light
Length of Day
Tomorrow will be .
, % of the Moon is Illuminated

Today's Extremes

State Highs State Lows

Community

WunderPhotos

Upload Photos

1,927,880 photos uploaded!

WunderBlog® & News

Nearby

Air Quality

  Air Quality AQ Index Pollutant
Not available.

Snow Depth

Station Depth Elevation

Earthquake Activity

City Distance Mag. Time & Date
Minimum magnitude displayed is 2.5.

Coastal Water Temperatures

Place Temperature

Stations

Nearby Weather Stations

Station Location Temp. Windchill Dew Point Humidity Wind Precip. Elev Updated Type
                   

Watches & Warnings

There are currently no watches in effect.